Los Angeles, Texas
Current Conditions -  °F | °C
As of 8:53 AM on Monday 24 Nov 2014 (Local Time) from KCOT Reporting Station
Clear Clear  
Wind Chill: 57°   Ceiling: Unl
Heat Index: 57°   Visibility: 10mi
Dew Point: 39°   Wind: 9mph
Humidity: 51%   Direction: 340°NNW
Pressure: 30.12"   Gusts: NA
Location:  28.4056°N, 99.0861°W
Report Text: KCOT 241453Z AUTO 34008KT 10SM CLR 14/04 A3012 RMK AO2 SLP195 T01390039 51036 $
Loading
Personal Weather Stations






























Interactive Weather Map New forecast layout! Learn more

10-Day Weather Forecast

Advertisements
Track Severe Weather on mobile